createdAt,value
2023-12-31T00:03:13.254Z,87.04
2023-12-31T00:08:16.873Z,87.12
2023-12-31T00:13:19.561Z,87.00
2023-12-31T00:18:22.263Z,87.11
2023-12-31T00:23:25.078Z,87.19
2023-12-31T00:28:27.868Z,87.14
2023-12-31T00:33:32.062Z,87.09
2023-12-31T00:38:35.578Z,87.24
2023-12-31T00:43:38.189Z,87.07
2023-12-31T00:48:41.002Z,86.96
2023-12-31T00:53:43.621Z,87.01
2023-12-31T00:58:46.318Z,87.13
2023-12-31T01:03:49.298Z,87.12
2023-12-31T01:08:52.718Z,87.20
2023-12-31T01:13:56.105Z,87.17
2023-12-31T01:18:59.001Z,87.20
2023-12-31T01:24:01.876Z,87.09
2023-12-31T01:29:04.606Z,87.15
2023-12-31T01:34:07.960Z,87.12
2023-12-31T01:39:11.203Z,87.10
2023-12-31T01:44:13.796Z,87.23
2023-12-31T01:49:19.427Z,87.13
2023-12-31T01:54:22.116Z,87.20
2023-12-31T01:59:24.962Z,87.14
2023-12-31T02:04:35.299Z,87.09
2023-12-31T02:09:38.299Z,87.24
2023-12-31T02:14:40.910Z,87.36
2023-12-31T02:19:43.741Z,87.30
2023-12-31T02:24:50.895Z,87.52
2023-12-31T02:30:01.034Z,87.11
2023-12-31T02:35:05.721Z,87.21
2023-12-31T02:40:09.180Z,87.30
2023-12-31T02:45:12.289Z,87.27
2023-12-31T02:50:16.389Z,87.16
2023-12-31T02:55:19.004Z,87.24
2023-12-31T03:00:22.065Z,87.17
2023-12-31T03:05:24.896Z,87.05
2023-12-31T03:10:29.146Z,87.21
2023-12-31T03:15:31.808Z,87.19
2023-12-31T03:20:34.685Z,87.13
2023-12-31T03:25:37.425Z,87.19
2023-12-31T03:30:40.178Z,87.14
2023-12-31T03:35:44.225Z,87.30
2023-12-31T03:40:46.984Z,87.39
2023-12-31T03:45:49.552Z,87.22
2023-12-31T03:50:52.123Z,87.23
2023-12-31T03:55:54.938Z,87.44
2023-12-31T04:00:57.963Z,87.32
2023-12-31T04:06:00.723Z,87.41
2023-12-31T04:11:03.570Z,87.26
2023-12-31T04:16:07.189Z,87.35
2023-12-31T04:21:09.753Z,87.32
2023-12-31T04:26:13.591Z,87.36
2023-12-31T04:31:16.670Z,87.41
2023-12-31T04:36:19.423Z,87.36
2023-12-31T04:41:23.610Z,87.52
2023-12-31T04:46:26.416Z,87.50
2023-12-31T04:51:30.342Z,87.42
2023-12-31T04:56:33.241Z,87.50
2023-12-31T05:01:36.164Z,87.69
2023-12-31T05:06:38.780Z,87.56
2023-12-31T05:11:41.492Z,87.46
2023-12-31T05:16:44.345Z,87.51
2023-12-31T05:21:47.444Z,87.42
2023-12-31T05:26:50.180Z,87.62
2023-12-31T05:31:53.434Z,87.53
2023-12-31T05:36:56.129Z,87.65
2023-12-31T05:41:58.740Z,87.63
2023-12-31T05:47:01.555Z,87.43
2023-12-31T05:52:10.193Z,87.66
2023-12-31T05:57:13.252Z,87.62
2023-12-31T06:02:15.894Z,87.45
2023-12-31T06:07:18.559Z,87.62
2023-12-31T06:12:21.255Z,87.47
2023-12-31T06:17:23.927Z,87.63
2023-12-31T06:22:26.539Z,87.57
2023-12-31T06:27:29.232Z,87.61
2023-12-31T06:32:31.872Z,87.84
2023-12-31T06:37:34.570Z,87.40
2023-12-31T06:42:37.200Z,87.58
2023-12-31T06:47:39.925Z,87.70
2023-12-31T06:52:42.606Z,87.71
2023-12-31T06:57:45.690Z,87.53
2023-12-31T07:02:50.194Z,87.68
2023-12-31T07:07:56.357Z,87.88
2023-12-31T07:12:59.161Z,87.84
2023-12-31T07:18:04.069Z,87.69
2023-12-31T07:23:07.209Z,87.71
2023-12-31T07:28:09.898Z,87.74
2023-12-31T07:33:12.907Z,87.77
2023-12-31T07:38:15.679Z,87.73
2023-12-31T07:43:18.317Z,87.86
2023-12-31T07:48:21.348Z,87.63
2023-12-31T07:53:24.063Z,87.66
2023-12-31T07:58:28.758Z,87.48
2023-12-31T08:03:31.725Z,87.76
2023-12-31T08:08:34.567Z,87.75
2023-12-31T08:13:37.348Z,87.70
2023-12-31T08:18:40.540Z,87.57
2023-12-31T08:23:46.534Z,87.49
2023-12-31T08:28:51.220Z,87.32
2023-12-31T08:33:54.029Z,87.60
2023-12-31T08:38:57.333Z,87.47
2023-12-31T08:44:00.114Z,87.43
2023-12-31T08:49:03.156Z,87.31
2023-12-31T08:54:05.925Z,87.33
2023-12-31T08:59:08.550Z,87.48
2023-12-31T09:04:12.030Z,87.57
2023-12-31T09:09:15.736Z,87.42
2023-12-31T09:14:18.410Z,87.42
2023-12-31T09:19:23.515Z,87.35
2023-12-31T09:24:27.081Z,87.32
2023-12-31T09:29:29.634Z,87.54
2023-12-31T09:34:32.375Z,87.52
2023-12-31T09:39:35.126Z,87.39
2023-12-31T09:44:37.867Z,87.20
2023-12-31T09:49:43.840Z,87.36
2023-12-31T09:54:47.236Z,87.33
2023-12-31T09:59:52.244Z,87.36
2023-12-31T10:04:55.990Z,87.29
2023-12-31T10:09:59.740Z,87.15
2023-12-31T10:15:02.472Z,87.07
2023-12-31T10:20:09.683Z,86.93
2023-12-31T10:25:17.727Z,87.05
2023-12-31T10:30:24.834Z,87.07
2023-12-31T10:35:27.501Z,86.92
2023-12-31T10:40:30.182Z,86.72
2023-12-31T10:45:34.038Z,87.06
2023-12-31T10:50:39.127Z,86.61
2023-12-31T10:55:42.728Z,86.69
2023-12-31T11:00:45.988Z,86.62
2023-12-31T11:05:48.968Z,86.74
2023-12-31T11:10:51.901Z,86.58
2023-12-31T11:15:56.649Z,86.54
2023-12-31T11:21:25.721Z,86.29
2023-12-31T11:26:33.365Z,86.43
2023-12-31T11:31:42.776Z,85.89
2023-12-31T11:36:45.432Z,86.24
2023-12-31T11:41:53.862Z,86.21
2023-12-31T11:46:56.698Z,86.15
2023-12-31T11:52:00.653Z,85.52
2023-12-31T11:57:05.617Z,85.68
2023-12-31T12:02:08.927Z,85.59
2023-12-31T12:07:11.709Z,85.53
2023-12-31T12:12:14.403Z,85.16
2023-12-31T12:17:17.404Z,84.78
2023-12-31T12:22:20.344Z,84.53
2023-12-31T12:27:23.085Z,84.44
2023-12-31T12:32:28.987Z,84.08
2023-12-31T12:37:33.225Z,83.74
2023-12-31T12:42:38.546Z,83.22
2023-12-31T12:47:47.403Z,82.64
2023-12-31T12:52:50.133Z,82.19
2023-12-31T12:57:52.884Z,82.05
2023-12-31T13:02:55.536Z,81.48
2023-12-31T13:07:59.617Z,81.17
2023-12-31T13:13:02.531Z,80.68
2023-12-31T13:18:05.678Z,80.43
2023-12-31T13:23:08.595Z,80.19
2023-12-31T13:28:11.428Z,79.64
2023-12-31T13:33:15.258Z,79.57
2023-12-31T13:38:19.374Z,79.51
2023-12-31T13:43:22.085Z,78.97
2023-12-31T13:48:24.876Z,78.48
2023-12-31T13:53:27.768Z,78.47
2023-12-31T13:58:30.436Z,78.41
2023-12-31T14:03:34.486Z,78.21
2023-12-31T14:08:37.160Z,77.96
2023-12-31T14:13:41.848Z,77.93
2023-12-31T14:18:44.655Z,78.04
2023-12-31T14:23:47.333Z,77.71
2023-12-31T14:28:50.220Z,77.93
2023-12-31T14:33:57.454Z,77.59
2023-12-31T14:39:07.082Z,77.00
2023-12-31T14:44:11.090Z,76.43
2023-12-31T14:49:14.326Z,76.07
2023-12-31T14:54:17.160Z,76.16
2023-12-31T14:59:19.883Z,75.82
2023-12-31T15:04:22.600Z,75.88
2023-12-31T15:09:25.305Z,75.32
2023-12-31T15:14:27.984Z,75.29
2023-12-31T15:19:32.177Z,75.13
2023-12-31T15:24:34.901Z,74.56
2023-12-31T15:29:37.548Z,74.55
2023-12-31T15:34:40.712Z,74.33
2023-12-31T15:39:44.022Z,74.10
2023-12-31T15:44:48.654Z,74.01
2023-12-31T15:49:51.397Z,74.10
2023-12-31T15:54:56.662Z,73.66
2023-12-31T16:00:02.622Z,73.53
2023-12-31T16:05:18.924Z,73.40
2023-12-31T16:10:22.387Z,73.00
2023-12-31T16:15:31.481Z,73.32
2023-12-31T16:20:38.028Z,73.50
2023-12-31T16:25:42.141Z,74.03
2023-12-31T16:30:45.709Z,73.76
2023-12-31T16:35:48.452Z,74.52
2023-12-31T16:40:53.981Z,74.70
2023-12-31T16:46:06.632Z,74.08
2023-12-31T16:51:09.537Z,73.95
2023-12-31T16:56:20.474Z,73.44
2023-12-31T17:01:24.491Z,73.59
2023-12-31T17:06:27.258Z,73.13
2023-12-31T17:11:35.402Z,73.10
2023-12-31T17:16:41.232Z,72.87
2023-12-31T17:21:44.816Z,72.45
2023-12-31T17:26:56.145Z,72.12
2023-12-31T17:32:01.026Z,72.02
2023-12-31T17:37:10.807Z,71.93
2023-12-31T17:42:22.489Z,71.76
2023-12-31T17:47:25.559Z,71.73
2023-12-31T17:52:28.377Z,71.66
2023-12-31T17:57:31.049Z,71.68
2023-12-31T18:02:33.843Z,71.62
2023-12-31T18:07:37.834Z,71.79
2023-12-31T18:12:43.883Z,71.21
2023-12-31T18:17:46.573Z,71.61
2023-12-31T18:22:49.378Z,71.76
2023-12-31T18:27:55.554Z,71.96
2023-12-31T18:32:58.328Z,71.75
2023-12-31T18:38:01.205Z,72.07
2023-12-31T18:43:04.120Z,72.00
2023-12-31T18:48:07.809Z,72.09
2023-12-31T18:53:10.865Z,71.96
2023-12-31T18:58:13.541Z,71.94
2023-12-31T19:03:19.142Z,71.52
2023-12-31T19:08:22.026Z,71.76
2023-12-31T19:13:29.861Z,71.50
2023-12-31T19:18:36.375Z,71.30
2023-12-31T19:23:44.926Z,71.13
2023-12-31T19:28:50.863Z,70.71
2023-12-31T19:33:55.062Z,70.76
2023-12-31T19:39:04.705Z,70.57
2023-12-31T19:44:23.108Z,70.53
2023-12-31T19:49:32.005Z,70.61
2023-12-31T19:54:34.662Z,70.51
2023-12-31T19:59:37.390Z,70.60
2023-12-31T20:04:40.278Z,70.46
2023-12-31T20:09:46.968Z,70.47
2023-12-31T20:14:52.311Z,70.14
2023-12-31T20:19:57.627Z,71.10
2023-12-31T20:25:03.564Z,70.99
2023-12-31T20:30:07.790Z,70.92
2023-12-31T20:35:17.086Z,70.36
2023-12-31T20:40:26.237Z,70.46
2023-12-31T20:45:29.062Z,70.44
2023-12-31T20:50:32.425Z,70.13
2023-12-31T20:55:35.109Z,70.36
2023-12-31T21:00:37.712Z,70.18
2023-12-31T21:05:41.094Z,69.97
2023-12-31T21:10:44.759Z,70.29
2023-12-31T21:15:48.022Z,70.11
2023-12-31T21:20:53.383Z,69.98
2023-12-31T21:25:56.329Z,70.58
2023-12-31T21:30:59.930Z,70.31
2023-12-31T21:36:04.480Z,70.33
2023-12-31T21:41:07.146Z,70.67
2023-12-31T21:46:09.774Z,70.34
2023-12-31T21:51:13.418Z,70.41
2023-12-31T21:56:37.068Z,70.51
2023-12-31T22:01:39.421Z,70.48
2023-12-31T22:06:44.642Z,70.13
2023-12-31T22:11:47.478Z,69.83
2023-12-31T22:16:52.707Z,70.10
2023-12-31T22:21:55.663Z,70.13
2023-12-31T22:26:59.182Z,69.83
2023-12-31T22:32:01.906Z,69.78
2023-12-31T22:37:05.901Z,69.49
2023-12-31T22:42:11.364Z,69.24
2023-12-31T22:47:14.292Z,69.46
2023-12-31T22:52:17.034Z,69.60
2023-12-31T22:57:19.791Z,69.08
2023-12-31T23:02:22.508Z,68.75
2023-12-31T23:07:27.883Z,68.59
2023-12-31T23:12:30.484Z,68.54
2023-12-31T23:17:33.146Z,68.43
2023-12-31T23:22:35.910Z,68.76
2023-12-31T23:27:38.528Z,68.49
2023-12-31T23:32:41.149Z,68.40
2023-12-31T23:37:43.821Z,68.40
2023-12-31T23:42:46.747Z,68.37
2023-12-31T23:47:50.797Z,68.62
2023-12-31T23:52:54.040Z,68.50
2023-12-31T23:58:04.416Z,68.30
